Time;durP1;ratioP1;P1;durP2;ratioP2;P2;SDS_P1;SDS_P2;PMS_P1;PMS_P2;Temp;Humidity;BMP_temperature;BMP_pressure;BME280_temperature;BME280_humidity;BME280_pressure;Samples;Min_cycle;Max_cycle;Signal;HPM_P1;HPM_P2
2022/04/30 00:02:13;;;;;;;;;34.75;33.00;;;;;11.34;59.44;102499.84;5033416;28;50409;-70
2022/04/30 00:04:44;;;;;;;;;40.50;34.25;;;;;11.29;59.62;102484.69;5015334;28;49689;-71
2022/04/30 00:07:13;;;;;;;;;36.75;29.25;;;;;11.36;59.85;102510.44;5033237;28;49956;-69
2022/04/30 00:09:38;;;;;;;;;29.25;26.75;;;;;11.21;60.04;102489.63;5003073;28;50874;-71
2022/04/30 00:12:05;;;;;;;;;45.25;39.25;;;;;11.32;60.21;102511.13;4991855;28;49933;-70
2022/04/30 00:14:31;;;;;;;;;63.75;50.75;;;;;11.23;60.58;102500.19;4991061;28;49767;-69
2022/04/30 00:16:56;;;;;;;;;44.25;39.25;;;;;11.28;60.08;102503.91;4993497;28;49838;-69
2022/04/30 00:19:23;;;;;;;;;93.00;77.00;;;;;11.22;60.55;102503.66;4991071;28;51195;-69
2022/04/30 00:21:50;;;;;;;;;310.00;255.25;;;;;11.17;61.34;102513.94;4991483;28;50042;-70
2022/04/30 00:24:15;;;;;;;;;88.33;72.33;;;;;11.09;61.72;102513.56;4992839;28;49655;-70
2022/04/30 00:26:41;;;;;;;;;88.33;73.00;;;;;10.95;61.91;102488.41;4989158;28;50188;-70
2022/04/30 00:29:07;;;;;;;;;53.50;44.50;;;;;11.10;62.32;102510.16;4993041;28;50010;-69
2022/04/30 00:31:33;;;;;;;;;44.00;35.50;;;;;11.16;62.03;102517.41;4992933;28;49736;-69
2022/04/30 00:34:00;;;;;;;;;36.00;32.25;;;;;11.02;61.75;102493.13;4993141;28;49588;-69
2022/04/30 00:36:26;;;;;;;;;34.25;31.25;;;;;11.02;62.43;102489.59;5007945;28;50816;-70
2022/04/30 00:38:51;;;;;;;;;38.25;35.75;;;;;10.97;63.06;102488.47;5007763;28;51707;-69
2022/04/30 00:41:16;;;;;;;;;39.25;33.75;;;;;11.08;63.06;102513.50;4992954;28;49767;-70
2022/04/30 00:43:47;;;;;;;;;58.75;46.50;;;;;11.01;64.05;102516.72;4992747;28;49728;-70
2022/04/30 00:46:16;;;;;;;;;46.25;37.25;;;;;10.87;65.25;102519.56;4990962;28;50209;-70
2022/04/30 00:48:45;;;;;;;;;46.25;36.25;;;;;10.90;65.13;102510.91;5007402;28;53740;-69
2022/04/30 00:51:19;;;;;;;;;39.00;35.25;;;;;11.02;65.08;102526.38;4992438;28;49858;-69
2022/04/30 00:53:47;;;;;;;;;34.50;33.75;;;;;11.01;65.45;102527.22;5007347;28;49870;-70
2022/04/30 00:56:14;;;;;;;;;40.25;35.75;;;;;10.73;66.45;102488.22;4992738;28;49633;-70
2022/04/30 00:58:48;;;;;;;;;41.75;36.50;;;;;10.93;65.98;102529.47;4991002;28;51192;-70
2022/04/30 01:01:14;;;;;;;;;36.50;35.00;;;;;10.81;66.46;102497.38;4991080;28;49856;-69
2022/04/30 01:03:40;;;;;;;;;36.75;33.25;;;;;10.81;66.75;102513.16;4992642;28;49824;-69
2022/04/30 01:06:09;;;;;;;;;27.25;25.25;;;;;10.73;67.56;102498.75;4986547;28;49854;-69
2022/04/30 01:08:37;;;;;;;;;40.25;35.25;;;;;10.84;67.93;102515.91;4992107;28;49754;-69
2022/04/30 01:11:03;;;;;;;;;38.75;35.25;;;;;10.62;68.09;102500.84;5024889;28;49799;-69
2022/04/30 01:13:34;;;;;;;;;39.50;35.50;;;;;10.42;69.09;102494.63;5014170;28;49786;-69
2022/04/30 01:16:01;;;;;;;;;41.00;32.25;;;;;10.46;69.33;102475.56;5025985;28;49949;-69
2022/04/30 01:18:27;;;;;;;;;35.75;32.25;;;;;10.35;69.49;102461.03;5025430;28;49978;-69
2022/04/30 01:20:56;;;;;;;;;37.00;35.00;;;;;10.50;69.96;102492.34;5031965;28;49580;-69
2022/04/30 01:23:23;;;;;;;;;46.00;37.33;;;;;10.50;69.99;102500.22;5013645;28;49757;-69
2022/04/30 01:25:50;;;;;;;;;37.50;32.50;;;;;10.40;70.63;102479.59;5032121;28;49752;-69
2022/04/30 01:28:19;;;;;;;;;35.25;32.75;;;;;10.50;70.51;102498.50;5013562;28;50510;-69
2022/04/30 01:30:44;;;;;;;;;50.00;40.25;;;;;10.36;70.59;102467.16;5031603;28;49781;-69
2022/04/30 01:38:39;;;;;;;;;36.25;33.75;;;;;10.27;70.94;102465.91;5031022;28;50215;-69
2022/04/30 01:41:05;;;;;;;;;43.75;33.00;;;;;10.44;70.28;102494.72;5031285;28;49886;-69
2022/04/30 01:43:33;;;;;;;;;41.50;35.50;;;;;10.36;70.77;102490.81;5013761;28;49847;-69
2022/04/30 01:45:59;;;;;;;;;41.25;36.25;;;;;10.25;70.92;102482.41;5031809;28;49683;-69
2022/04/30 01:48:25;;;;;;;;;39.00;36.25;;;;;10.19;71.03;102475.06;5030952;28;50072;-69
2022/04/30 01:50:52;;;;;;;;;36.00;32.50;;;;;10.28;71.82;102480.81;5031183;28;49743;-68
2022/04/30 01:53:18;;;;;;;;;38.00;32.00;;;;;10.41;70.75;102499.78;5031158;28;49617;-69
2022/04/30 01:55:44;;;;;;;;;38.25;33.50;;;;;10.18;71.28;102457.53;5012520;28;49862;-69
2022/04/30 01:58:09;;;;;;;;;38.25;34.25;;;;;10.30;71.44;102480.88;5031105;28;50980;-69
2022/04/30 02:00:35;;;;;;;;;35.75;30.50;;;;;10.26;71.62;102490.34;5012864;28;49895;-70
2022/04/30 02:03:08;;;;;;;;;41.75;35.50;;;;;10.24;71.96;102481.50;5030735;28;49862;-70
2022/04/30 02:05:36;;;;;;;;;41.75;37.00;;;;;10.19;71.52;102461.94;5031515;28;49777;-69
2022/04/30 02:08:06;;;;;;;;;38.75;36.50;;;;;10.31;70.96;102477.44;5030552;28;50857;-69
2022/04/30 02:10:35;;;;;;;;;40.25;35.75;;;;;10.36;71.77;102482.94;5030346;28;49685;-70
2022/04/30 02:13:02;;;;;;;;;36.75;35.75;;;;;10.29;71.73;102451.13;5030842;28;49739;-69
2022/04/30 02:15:29;;;;;;;;;37.25;34.00;;;;;10.28;71.25;102449.31;5031315;28;49979;-69
2022/04/30 02:17:56;;;;;;;;;49.50;40.50;;;;;10.46;70.85;102479.91;5012445;28;50691;-69
2022/04/30 02:20:27;;;;;;;;;37.00;32.75;;;;;10.36;71.63;102448.78;5013027;28;49701;-70
2022/04/30 02:22:56;;;;;;;;;41.50;36.00;;;;;10.53;70.76;102469.78;5030459;28;49840;-69
2022/04/30 02:25:22;;;;;;;;;38.00;33.50;;;;;10.46;70.87;102454.56;5012576;28;50255;-69
2022/04/30 02:27:50;;;;;;;;;36.75;32.75;;;;;10.61;70.98;102467.50;5030579;28;51173;-69
2022/04/30 02:30:18;;;;;;;;;37.50;32.50;;;;;10.61;70.57;102464.88;5024806;28;49808;-69
2022/04/30 02:32:52;;;;;;;;;35.00;34.00;;;;;10.69;70.27;102466.16;5012919;28;50187;-69
2022/04/30 02:35:22;;;;;;;;;43.50;38.25;;;;;10.69;70.80;102463.53;5027526;28;49738;-69
2022/04/30 02:37:50;;;;;;;;;29.25;27.25;;;;;10.69;70.22;102458.28;5027196;28;50101;-69
2022/04/30 02:40:16;;;;;;;;;41.75;36.00;;;;;10.65;70.07;102453.72;5030429;28;49797;-69
2022/04/30 02:42:44;;;;;;;;;35.00;32.50;;;;;10.56;70.44;102453.28;5031084;28;49894;-69
2022/04/30 02:45:11;;;;;;;;;40.25;37.00;;;;;10.44;70.99;102432.59;5030453;28;49807;-69
2022/04/30 02:47:38;;;;;;;;;39.50;37.25;;;;;10.44;70.45;102426.44;5030233;28;49874;-69
2022/04/30 02:50:04;;;;;;;;;38.25;34.50;;;;;10.39;71.68;102439.34;5029920;28;49987;-69
2022/04/30 02:52:29;;;;;;;;;35.50;33.50;;;;;10.47;71.52;102450.22;5030533;28;50156;-69
2022/04/30 02:54:55;;;;;;;;;29.00;25.75;;;;;10.56;71.30;102480.44;5030382;28;49976;-70
2022/04/30 02:57:20;;;;;;;;;43.50;35.75;;;;;10.53;70.81;102442.63;5030020;28;51006;-69
2022/04/30 02:59:54;;;;;;;;;34.50;31.75;;;;;10.50;70.94;102434.59;5030441;28;49913;-69
2022/04/30 03:02:21;;;;;;;;;39.75;37.25;;;;;10.48;71.24;102428.38;5025580;28;51271;-69
2022/04/30 03:04:53;;;;;;;;;31.50;31.00;;;;;10.59;71.12;102449.06;5026194;28;49808;-69
2022/04/30 03:07:21;;;;;;;;;33.50;30.50;;;;;10.52;70.40;102433.84;5029957;28;51196;-69
2022/04/30 03:09:47;;;;;;;;;44.75;34.75;;;;;10.37;71.01;102411.22;5029078;28;49742;-69
2022/04/30 03:12:13;;;;;;;;;40.50;35.25;;;;;10.49;71.47;102459.06;5030301;28;49825;-69
2022/04/30 03:14:39;;;;;;;;;37.25;32.50;;;;;10.34;71.29;102427.72;5030145;28;49821;-70
2022/04/30 03:22:34;;;;;;;;;37.50;31.50;;;;;10.33;71.27;102439.06;5024615;28;49895;-69
2022/04/30 03:24:59;;;;;;;;;35.00;29.00;;;;;10.32;71.66;102429.34;5029543;28;49912;-69
2022/04/30 03:27:24;;;;;;;;;40.00;32.25;;;;;10.42;71.32;102441.19;5029908;28;49725;-69
2022/04/30 03:29:50;;;;;;;;;32.25;30.50;;;;;10.42;71.53;102446.44;5029683;28;49776;-69
2022/04/30 03:32:16;;;;;;;;;31.00;31.00;;;;;10.23;71.34;102432.47;5012030;28;50043;-69
2022/04/30 03:34:42;;;;;;;;;35.25;32.25;;;;;10.26;72.07;102424.72;5030132;28;49777;-69
2022/04/30 03:37:07;;;;;;;;;38.50;34.00;;;;;10.36;71.77;102452.31;5029798;28;49860;-69
2022/04/30 03:39:32;;;;;;;;;37.25;33.00;;;;;10.29;72.16;102435.38;5029723;28;49812;-69
2022/04/30 03:41:58;;;;;;;;;33.75;33.75;;;;;10.31;72.19;102428.44;5029299;28;50207;-69
2022/04/30 03:44:23;;;;;;;;;35.50;34.00;;;;;10.31;72.13;102431.06;5029878;28;50017;-68
2022/04/30 03:46:49;;;;;;;;;36.75;34.00;;;;;10.25;71.95;102436.06;5029585;28;50957;-68
2022/04/30 03:49:14;;;;;;;;;38.50;34.50;;;;;10.29;71.70;102444.97;5029773;28;49905;-68
2022/04/30 03:51:40;;;;;;;;;37.75;32.75;;;;;10.20;72.17;102428.72;5029478;28;50176;-69
2022/04/30 03:54:05;;;;;;;;;35.50;32.50;;;;;10.15;71.83;102423.28;5029620;28;49896;-68
2022/04/30 03:56:31;;;;;;;;;34.50;31.50;;;;;10.23;72.55;102435.09;5029453;28;50174;-69
2022/04/30 03:58:57;;;;;;;;;41.25;37.00;;;;;10.25;72.10;102448.28;5029442;28;49681;-68
2022/04/30 04:01:22;;;;;;;;;39.25;36.50;;;;;10.16;72.44;102442.53;5029491;28;50255;-69
2022/04/30 04:03:50;;;;;;;;;34.75;31.75;;;;;10.13;72.72;102440.63;5028884;28;49934;-68
2022/04/30 04:06:16;;;;;;;;;33.25;28.50;;;;;10.09;72.27;102425.59;5029506;28;49611;-68
2022/04/30 04:08:42;;;;;;;;;38.25;35.00;;;;;10.15;72.44;102443.38;5029154;28;49567;-69
2022/04/30 04:11:13;;;;;;;;;33.50;33.50;;;;;10.11;72.97;102449.28;5029445;28;49842;-68
2022/04/30 04:19:06;;;;;;;;;45.00;36.00;;;;;9.95;72.57;102424.91;5029171;28;50039;-69
2022/04/30 04:21:32;;;;;;;;;40.50;34.50;;;;;9.99;72.84;102434.72;5029133;28;49761;-69
2022/04/30 04:26:41;;;;;;;;;42.50;35.75;;;;;9.98;73.29;102421.53;5031299;28;50279;-69
2022/04/30 04:29:06;;;;;;;;;44.75;38.75;;;;;9.59;72.74;102350.53;5032597;28;49731;-69
2022/04/30 04:31:32;;;;;;;;;30.25;29.75;;;;;9.99;72.40;102429.47;5031909;28;49885;-69
2022/04/30 04:33:57;;;;;;;;;39.75;36.75;;;;;10.05;72.31;102447.25;5032449;28;49691;-69
2022/04/30 04:36:23;;;;;;;;;36.25;30.50;;;;;10.02;72.81;102453.22;5013656;28;51895;-69
2022/04/30 04:38:48;;;;;;;;;43.00;36.25;;;;;9.91;72.72;102435.16;5032359;28;49800;-68
2022/04/30 04:41:13;;;;;;;;;39.75;36.50;;;;;9.88;73.14;102435.91;5032357;28;49754;-69
2022/04/30 04:43:39;;;;;;;;;42.25;36.25;;;;;9.95;72.98;102453.78;5032417;28;49827;-69
2022/04/30 04:46:04;;;;;;;;;40.00;35.00;;;;;9.79;73.58;102426.69;5035427;28;49709;-69
2022/04/30 04:48:31;;;;;;;;;35.75;34.50;;;;;9.90;73.53;102457.88;5032239;28;49986;-69
2022/04/30 04:50:57;;;;;;;;;34.50;33.00;;;;;9.78;72.80;102430.13;5032375;28;49776;-69
2022/04/30 04:53:23;;;;;;;;;37.75;36.00;;;;;9.94;73.71;102464.16;5031541;28;49564;-69
2022/04/30 04:55:49;;;;;;;;;46.50;35.50;;;;;9.89;72.87;102445.59;5031907;28;51023;-69
2022/04/30 04:58:14;;;;;;;;;33.00;29.00;;;;;9.92;73.63;102450.06;5032352;28;49862;-69
2022/04/30 05:00:40;;;;;;;;;45.00;35.25;;;;;9.93;72.79;102459.75;5032351;28;49808;-69
2022/04/30 05:03:05;;;;;;;;;44.75;37.75;;;;;10.00;73.49;102468.00;5032280;28;49773;-69
2022/04/30 05:05:30;;;;;;;;;44.25;38.00;;;;;10.13;73.45;102474.75;5031546;28;49959;-69
2022/04/30 05:07:56;;;;;;;;;34.75;33.75;;;;;10.07;73.80;102456.09;5031840;28;49763;-69
2022/04/30 05:10:22;;;;;;;;;39.25;35.75;;;;;10.27;72.52;102476.41;5031895;28;49777;-69
2022/04/30 05:12:47;;;;;;;;;36.00;34.75;;;;;10.19;73.31;102466.31;5032136;28;49729;-68
2022/04/30 05:15:13;;;;;;;;;42.25;37.50;;;;;10.26;72.30;102476.31;5031585;28;50567;-69
2022/04/30 05:17:38;;;;;;;;;38.00;32.25;;;;;10.27;73.35;102481.63;5032008;28;49778;-69
2022/04/30 05:20:05;;;;;;;;;44.50;38.75;;;;;10.13;73.61;102468.63;5032058;28;49631;-69
2022/04/30 05:22:31;;;;;;;;;41.00;35.75;;;;;10.18;73.02;102472.38;5032143;28;49536;-68
2022/04/30 05:24:56;;;;;;;;;42.25;35.75;;;;;10.28;73.12;102487.78;5031148;28;49875;-69
2022/04/30 05:27:21;;;;;;;;;38.25;34.50;;;;;10.35;72.66;102474.16;5031567;28;50030;-68
2022/04/30 05:29:47;;;;;;;;;41.25;38.00;;;;;10.43;72.89;102470.19;5031815;28;49975;-69
2022/04/30 05:32:12;;;;;;;;;42.25;36.00;;;;;10.53;72.37;102461.91;5032106;28;49774;-69
2022/04/30 05:34:39;;;;;;;;;48.00;38.50;;;;;10.65;72.97;102482.59;5031283;28;49614;-69
2022/04/30 05:37:04;;;;;;;;;42.25;37.00;;;;;10.60;72.31;102474.50;5031042;28;49989;-70
2022/04/30 05:39:29;;;;;;;;;43.75;37.50;;;;;10.74;72.68;102482.16;5013274;28;49750;-68
2022/04/30 05:41:55;;;;;;;;;43.25;35.50;;;;;10.63;71.84;102484.25;5032000;28;49769;-69
2022/04/30 05:44:20;;;;;;;;;43.75;38.00;;;;;10.47;72.22;102455.47;5030804;28;49876;-70
2022/04/30 05:46:45;;;;;;;;;44.75;37.75;;;;;10.49;73.14;102478.34;5031381;28;49797;-70
2022/04/30 05:49:11;;;;;;;;;36.25;35.25;;;;;10.48;72.69;102479.16;5031494;28;49843;-70
2022/04/30 05:51:36;;;;;;;;;43.25;36.25;;;;;10.51;72.62;102497.69;5031366;28;49913;-69
2022/04/30 05:54:02;;;;;;;;;41.75;35.00;;;;;10.53;71.97;102492.53;5033437;28;49965;-70
2022/04/30 05:56:27;;;;;;;;;41.00;34.00;;;;;10.43;71.99;102504.31;5043418;28;49659;-70
2022/04/30 05:58:54;;;;;;;;;46.50;36.75;;;;;10.29;72.34;102485.25;5031425;28;49783;-69
2022/04/30 06:01:19;;;;;;;;;42.00;38.00;;;;;10.18;73.14;102478.53;5031653;28;49716;-69
2022/04/30 06:03:45;;;;;;;;;46.25;38.75;;;;;10.34;73.20;102498.59;5030776;28;50162;-69
2022/04/30 06:06:10;;;;;;;;;46.25;37.50;;;;;10.44;72.81;102511.34;5030718;28;49765;-69
2022/04/30 06:08:36;;;;;;;;;35.00;34.00;;;;;10.39;72.70;102504.06;5033570;28;49711;-73
2022/04/30 06:11:03;;;;;;;;;46.25;38.75;;;;;10.43;72.12;102506.94;5031287;28;50070;-76
2022/04/30 06:13:28;;;;;;;;;40.50;37.00;;;;;10.43;72.09;102499.06;5020632;28;51792;-68
2022/04/30 06:15:54;;;;;;;;;44.25;37.75;;;;;10.54;71.40;102516.22;5030070;28;49770;-70
2022/04/30 06:18:20;;;;;;;;;38.50;35.50;;;;;10.70;71.27;102517.84;5031089;28;49769;-72
2022/04/30 06:20:45;;;;;;;;;29.50;28.25;;;;;10.77;70.80;102532.19;5031214;28;49884;-68
2022/04/30 06:23:15;;;;;;;;;35.50;31.50;;;;;10.75;70.07;102518.09;5030624;28;50562;-69
2022/04/30 06:25:41;;;;;;;;;30.25;28.00;;;;;10.89;69.90;102509.13;5012285;28;49769;-70
2022/04/30 06:28:06;;;;;;;;;41.25;36.50;;;;;11.19;70.00;102535.94;5031272;28;49871;-71
2022/04/30 06:30:32;;;;;;;;;38.50;35.00;;;;;11.25;68.72;102528.34;5030750;28;49609;-66
2022/04/30 06:32:57;;;;;;;;;42.25;37.75;;;;;11.29;68.13;102530.31;5030924;28;50907;-67
2022/04/30 06:35:23;;;;;;;;;38.50;32.25;;;;;11.21;68.44;102518.53;5030745;28;50039;-68
2022/04/30 06:37:48;;;;;;;;;39.25;34.00;;;;;11.09;68.34;102496.91;5030475;28;50017;-67
2022/04/30 06:40:13;;;;;;;;;23.25;19.75;;;;;11.14;68.22;102526.97;5030998;28;50029;-65
2022/04/30 06:42:44;;;;;;;;;42.00;35.00;;;;;11.12;68.21;102524.25;5030210;28;50629;-65
2022/04/30 06:45:11;;;;;;;;;38.25;34.25;;;;;11.05;67.67;102543.19;5030543;28;50019;-65
2022/04/30 06:47:36;;;;;;;;;39.25;36.00;;;;;11.09;67.79;102541.59;5029239;28;49694;-63
2022/04/30 06:50:02;;;;;;;;;39.25;36.50;;;;;11.17;68.03;102541.13;5030330;28;49719;-63
2022/04/30 06:52:28;;;;;;;;;44.75;38.50;;;;;11.18;67.22;102518.38;5029970;28;50415;-62
2022/04/30 06:57:37;;;;;;;;;31.00;27.50;;;;;11.19;66.51;102507.03;5029056;28;49788;-76
2022/04/30 07:01:25;;;;;;;;;32.75;28.25;;;;;11.35;66.79;102520.03;5010156;28;49814;-68
2022/04/30 07:02:49;;;;;;;;;32.25;28.75;;;;;11.44;67.07;102551.13;5035747;28;50591;-66
2022/04/30 07:05:14;;;;;;;;;37.50;32.50;;;;;11.34;66.62;102519.97;5026544;28;49753;-67
2022/04/30 07:07:39;;;;;;;;;30.75;28.75;;;;;11.55;65.82;102557.78;5024373;28;49396;-63
2022/04/30 07:10:05;;;;;;;;;36.50;34.25;;;;;11.43;66.15;102537.06;5029557;28;49678;-67
2022/04/30 07:12:30;;;;;;;;;38.25;31.75;;;;;11.48;65.93;102547.78;5007222;28;53119;-65
2022/04/30 07:14:55;;;;;;;;;41.50;32.75;;;;;11.60;65.69;102551.00;5008084;28;49898;-64
2022/04/30 07:17:22;;;;;;;;;37.75;33.00;;;;;11.59;65.75;102556.19;5026879;28;49839;-67
2022/04/30 07:19:47;;;;;;;;;35.25;30.00;;;;;11.47;65.54;102546.88;5029828;28;49849;-68
2022/04/30 07:22:13;;;;;;;;;35.00;31.50;;;;;11.68;65.54;102553.97;5029898;28;50752;-67
2022/04/30 07:24:38;;;;;;;;;39.75;34.00;;;;;11.78;65.13;102564.09;5029203;28;49932;-67
2022/04/30 07:27:05;;;;;;;;;34.75;31.25;;;;;11.82;64.36;102558.16;5034367;28;49802;-68
2022/04/30 07:29:32;;;;;;;;;39.25;34.50;;;;;11.90;64.31;102556.75;5027702;28;50045;-67
2022/04/30 07:31:58;;;;;;;;;34.50;32.25;;;;;11.88;64.23;102555.78;5011803;28;51418;-70
2022/04/30 07:34:23;;;;;;;;;34.50;28.75;;;;;11.85;64.06;102545.09;5029704;28;49633;-65
2022/04/30 07:36:48;;;;;;;;;35.25;31.25;;;;;12.03;64.27;102550.28;5027697;28;49919;-66
2022/04/30 07:39:14;;;;;;;;;39.00;32.75;;;;;12.01;64.30;102544.06;5030306;28;50025;-67
2022/04/30 07:41:40;;;;;;;;;41.75;35.00;;;;;12.17;63.78;102545.63;5027872;28;49812;-67
2022/04/30 07:44:05;;;;;;;;;32.50;29.00;;;;;12.20;63.24;102541.38;5029836;28;49639;-67
2022/04/30 07:46:31;;;;;;;;;35.00;31.75;;;;;12.26;63.40;102535.50;5009530;28;49781;-68
2022/04/30 07:48:56;;;;;;;;;37.75;31.75;;;;;12.29;62.88;102548.78;5037277;28;49627;-68
2022/04/30 07:54:05;;;;;;;;;31.50;27.75;;;;;12.25;63.54;102541.56;5029553;28;49733;-68
2022/04/30 07:56:31;;;;;;;;;24.50;22.00;;;;;12.20;63.53;102512.41;5029740;28;49801;-67
2022/04/30 07:58:56;;;;;;;;;31.25;26.75;;;;;12.44;63.07;102552.03;5029229;28;49942;-66
2022/04/30 08:01:22;;;;;;;;;28.00;28.00;;;;;12.34;62.26;102528.78;5031047;28;54853;-67
2022/04/30 08:03:47;;;;;;;;;35.25;32.50;;;;;12.77;62.64;102543.72;5033008;28;49674;-69
2022/04/30 08:06:13;;;;;;;;;31.25;29.25;;;;;12.82;61.49;102537.78;5033410;28;49822;-67
2022/04/30 08:08:38;;;;;;;;;42.00;34.25;;;;;12.80;61.13;102530.66;5033112;28;50008;-68
2022/04/30 08:11:04;;;;;;;;;27.50;26.75;;;;;12.76;60.43;102520.84;5032701;28;50471;-67
2022/04/30 08:13:30;;;;;;;;;29.25;26.50;;;;;12.78;60.96;102549.06;5026639;28;49810;-68
2022/04/30 08:15:55;;;;;;;;;26.25;25.75;;;;;12.84;61.70;102549.31;5033052;28;49668;-65
2022/04/30 08:18:20;;;;;;;;;25.50;25.50;;;;;13.03;60.66;102548.28;5033234;28;49680;-67
2022/04/30 08:20:46;;;;;;;;;25.75;24.50;;;;;12.99;60.18;102548.09;5032826;28;50510;-68
2022/04/30 08:23:12;;;;;;;;;34.75;29.00;;;;;12.88;60.22;102543.31;5032660;28;49693;-67
2022/04/30 08:25:38;;;;;;;;;31.50;26.75;;;;;12.91;60.41;102563.59;5032202;28;49630;-68
2022/04/30 08:28:04;;;;;;;;;28.25;24.50;;;;;12.87;60.23;102538.88;5025969;28;50034;-68
2022/04/30 08:30:30;;;;;;;;;45.50;36.75;;;;;12.71;59.95;102533.81;5033662;28;51089;-67
2022/04/30 08:32:55;;;;;;;;;29.50;28.00;;;;;12.88;59.95;102552.94;5032867;28;49688;-69
2022/04/30 08:35:21;;;;;;;;;29.50;26.00;;;;;12.92;59.76;102548.69;5032646;28;49658;-68
2022/04/30 08:37:46;;;;;;;;;34.75;31.75;;;;;12.96;59.58;102551.53;5032678;28;49852;-67
2022/04/30 08:40:12;;;;;;;;;26.25;25.25;;;;;13.07;58.95;102557.22;5032472;28;50537;-69
2022/04/30 08:42:38;;;;;;;;;25.25;20.75;;;;;12.98;58.97;102543.66;5032767;28;49612;-68
2022/04/30 08:45:08;;;;;;;;;25.75;24.00;;;;;13.08;58.43;102553.75;5032633;28;49865;-66
2022/04/30 08:47:41;;;;;;;;;27.75;25.25;;;;;12.81;58.39;102506.09;5032783;28;49892;-68
2022/04/30 08:50:11;;;;;;;;;31.50;25.25;;;;;13.00;58.42;102541.97;5032333;28;49737;-67
2022/04/30 08:52:38;;;;;;;;;28.00;23.50;;;;;13.15;58.89;102546.13;5031789;28;49971;-67
2022/04/30 08:55:06;;;;;;;;;23.25;21.25;;;;;13.09;57.48;102542.34;5032829;28;49622;-64
2022/04/30 08:57:31;;;;;;;;;25.50;23.00;;;;;13.08;56.34;102535.28;5014667;28;50002;-64
2022/04/30 08:59:58;;;;;;;;;27.00;25.00;;;;;12.94;56.75;102534.75;5032034;28;50717;-64
2022/04/30 09:02:24;;;;;;;;;24.00;23.00;;;;;13.03;56.99;102532.47;5033577;28;49754;-64
2022/04/30 09:04:50;;;;;;;;;22.75;19.50;;;;;13.08;55.07;102524.72;5034835;28;49558;-65
2022/04/30 09:07:23;;;;;;;;;21.00;17.00;;;;;13.14;54.31;102541.69;5032291;28;49786;-65
2022/04/30 09:10:00;;;;;;;;;27.50;24.00;;;;;13.13;54.50;102545.19;5031565;28;49880;-65
2022/04/30 09:12:28;;;;;;;;;14.00;9.75;;;;;13.08;52.37;102544.09;5031958;28;49737;-64
2022/04/30 09:14:54;;;;;;;;;17.50;16.75;;;;;13.14;53.40;102538.16;5028864;28;49900;-65
2022/04/30 09:17:22;;;;;;;;;19.75;17.75;;;;;13.22;54.09;102544.66;5032624;28;49999;-65
2022/04/30 09:19:56;;;;;;;;;19.50;17.75;;;;;13.17;53.16;102519.81;5032001;28;50819;-65
2022/04/30 09:22:36;;;;;;;;;19.00;16.75;;;;;13.22;53.46;102530.56;5031291;28;49688;-65
2022/04/30 09:25:13;;;;;;;;;16.75;15.00;;;;;13.20;52.67;102521.69;5031694;28;49813;-65
2022/04/30 09:27:45;;;;;;;;;23.50;19.25;;;;;13.29;52.39;102525.56;5032315;28;49882;-65
2022/04/30 09:30:29;;;;;;;;;13.50;11.00;;;;;13.26;53.37;102524.56;5031795;28;49828;-65
2022/04/30 09:33:12;;;;;;;;;21.25;17.00;;;;;13.26;52.88;102514.91;5031759;28;49814;-64
2022/04/30 09:38:24;;;;;;;;;18.00;17.25;;;;;13.32;53.46;102512.53;5031776;28;49672;-67
2022/04/30 09:40:57;;;;;;;;;20.00;17.50;;;;;13.38;51.64;102517.13;5031591;28;49898;-66
2022/04/30 09:43:30;;;;;;;;;18.00;14.00;;;;;13.39;51.32;102501.34;5028366;28;49807;-66
2022/04/30 09:45:59;;;;;;;;;16.75;15.75;;;;;13.52;51.65;102533.47;5031482;28;49789;-64
2022/04/30 09:53:57;;;;;;;;;15.25;14.50;;;;;13.32;51.54;102491.44;5031588;28;49816;-68
2022/04/30 09:56:33;;;;;;;;;9.25;7.00;;;;;13.41;52.04;102491.75;5031672;28;49837;-65
2022/04/30 09:59:02;;;;;;;;;15.50;15.50;;;;;13.10;52.29;102420.22;5026714;28;49804;-64
2022/04/30 10:01:32;;;;;;;;;8.00;6.75;;;;;13.61;51.19;102500.41;5033899;28;49952;-64
2022/04/30 10:03:58;;;;;;;;;17.75;17.25;;;;;13.62;50.66;102485.47;5035261;28;49871;-63
2022/04/30 10:06:25;;;;;;;;;22.50;16.75;;;;;13.85;51.26;102499.47;5030608;28;49861;-63
2022/04/30 10:08:52;;;;;;;;;16.00;14.25;;;;;13.83;50.78;102514.34;5011859;28;49737;-63
2022/04/30 10:11:33;;;;;;;;;17.25;17.25;;;;;13.24;49.83;102392.66;5031264;28;51051;-63
2022/04/30 10:14:09;;;;;;;;;13.75;11.75;;;;;13.95;48.76;102501.56;5031257;28;49751;-62
2022/04/30 10:16:35;;;;;;;;;4.00;3.25;;;;;13.90;47.12;102513.75;5031148;28;49837;-64
2022/04/30 10:19:15;;;;;;;;;15.50;13.50;;;;;13.65;47.64;102453.91;5031041;28;49776;-66
2022/04/30 10:21:41;;;;;;;;;11.75;11.75;;;;;13.65;48.01;102465.34;5030785;28;49958;-66
2022/04/30 10:24:09;;;;;;;;;13.25;13.00;;;;;13.83;48.15;102501.16;5029724;28;50197;-66
2022/04/30 10:26:35;;;;;;;;;17.75;16.75;;;;;13.90;47.73;102501.44;5031073;28;49873;-66
2022/04/30 10:29:12;;;;;;;;;13.75;12.25;;;;;13.97;48.32;102499.88;5031223;28;49898;-69
2022/04/30 10:31:45;;;;;;;;;19.00;15.25;;;;;14.09;48.45;102494.13;5012850;28;52483;-69
2022/04/30 10:34:11;;;;;;;;;19.50;18.25;;;;;14.22;48.33;102493.69;5030590;28;49801;-69
2022/04/30 10:36:38;;;;;;;;;19.75;17.50;;;;;14.16;47.95;102481.19;5030760;28;49694;-72
2022/04/30 10:39:09;;;;;;;;;13.00;13.00;;;;;14.06;48.53;102457.06;5013194;28;49808;-77
2022/04/30 10:41:48;;;;;;;;;16.25;15.75;;;;;14.27;47.91;102481.53;5006673;28;52610;-72
2022/04/30 10:44:14;;;;;;;;;17.50;17.00;;;;;14.45;48.86;102466.31;5030796;28;49776;-72
2022/04/30 10:46:45;;;;;;;;;18.25;16.75;;;;;14.41;46.82;102482.88;5030740;28;49811;-69
2022/04/30 10:49:11;;;;;;;;;16.00;14.50;;;;;14.38;46.37;102482.81;5030810;28;49703;-69
2022/04/30 10:51:37;;;;;;;;;14.00;12.50;;;;;14.24;46.50;102479.69;5030557;28;50993;-68
2022/04/30 10:54:09;;;;;;;;;15.25;14.00;;;;;14.25;47.59;102475.31;5030245;28;49762;-67
2022/04/30 10:56:35;;;;;;;;;14.25;13.25;;;;;14.49;47.42;102473.50;5012508;28;49996;-64
2022/04/30 10:59:01;;;;;;;;;10.00;10.00;;;;;14.43;45.70;102475.00;5030708;28;49952;-66
2022/04/30 11:01:26;;;;;;;;;14.25;13.25;;;;;14.27;46.88;102453.34;5030234;28;50865;-70
2022/04/30 11:03:51;;;;;;;;;11.75;11.00;;;;;14.39;46.95;102473.13;5030339;28;49606;-72
2022/04/30 11:06:25;;;;;;;;;11.50;11.50;;;;;14.10;46.35;102422.00;5031180;28;49619;-66
2022/04/30 11:09:00;;;;;;;;;15.25;12.50;;;;;14.60;45.46;102474.72;5029875;28;49795;-64
2022/04/30 11:11:26;;;;;;;;;7.75;7.75;;;;;14.58;43.67;102467.63;5029947;28;50912;-62
2022/04/30 11:14:02;;;;;;;;;10.00;9.00;;;;;14.66;43.55;102458.16;5011564;28;49688;-69
2022/04/30 11:16:35;;;;;;;;;14.75;12.00;;;;;14.78;43.69;102436.50;5030135;28;49690;-69
2022/04/30 11:19:10;;;;;;;;;9.50;7.00;;;;;14.92;43.90;102461.59;5030283;28;49765;-70
2022/04/30 11:21:40;;;;;;;;;6.00;5.25;;;;;14.29;41.81;102367.16;5030175;28;50587;-67
2022/04/30 11:24:06;;;;;;;;;6.00;5.75;;;;;14.89;40.95;102450.94;5029740;28;49958;-68
2022/04/30 11:26:42;;;;;;;;;8.00;8.00;;;;;14.84;42.46;102461.38;5030523;28;50018;-63
2022/04/30 11:29:12;;;;;;;;;7.50;6.00;;;;;14.71;43.17;102440.69;5030012;28;50101;-70
2022/04/30 11:31:39;;;;;;;;;7.00;5.75;;;;;14.94;43.22;102441.38;5029737;28;51046;-71
2022/04/30 11:34:12;;;;;;;;;4.25;2.75;;;;;14.93;42.85;102425.47;5029859;28;49782;-66
2022/04/30 11:36:53;;;;;;;;;6.25;6.25;;;;;15.01;43.01;102437.19;5028804;28;49953;-71
2022/04/30 11:39:20;;;;;;;;;6.00;6.00;;;;;15.03;42.92;102416.97;5024780;28;49735;-67
2022/04/30 11:41:50;;;;;;;;;6.00;5.00;;;;;15.18;42.48;102444.75;5029393;28;49976;-64
2022/04/30 11:44:18;;;;;;;;;6.00;5.00;;;;;15.17;41.05;102436.78;5025451;28;50028;-69